sensor_id;sensor_type;location;lat;lon;timestamp;P1;durP1;ratioP1;P2;durP2;ratioP2
549;SDS011;20066;48.764;9.176;2022-10-16T00:01:06;12.87;;;2.20;;
549;SDS011;20066;48.764;9.176;2022-10-16T00:03:35;5.90;;;2.20;;
549;SDS011;20066;48.764;9.176;2022-10-16T00:06:03;9.03;;;2.33;;
549;SDS011;20066;48.764;9.176;2022-10-16T00:08:31;8.73;;;2.23;;
549;SDS011;20066;48.764;9.176;2022-10-16T00:11:00;6.73;;;2.73;;
549;SDS011;20066;48.764;9.176;2022-10-16T00:13:29;6.80;;;2.07;;
549;SDS011;20066;48.764;9.176;2022-10-16T00:15:59;6.83;;;2.70;;
549;SDS011;20066;48.764;9.176;2022-10-16T00:18:28;6.07;;;2.60;;
549;SDS011;20066;48.764;9.176;2022-10-16T00:21:01;4.30;;;1.87;;
549;SDS011;20066;48.764;9.176;2022-10-16T00:23:30;7.33;;;2.70;;
549;SDS011;20066;48.764;9.176;2022-10-16T00:25:59;15.33;;;2.30;;
549;SDS011;20066;48.764;9.176;2022-10-16T00:28:28;5.30;;;2.23;;
549;SDS011;20066;48.764;9.176;2022-10-16T00:30:58;12.40;;;2.77;;
549;SDS011;20066;48.764;9.176;2022-10-16T00:33:29;4.50;;;2.43;;
549;SDS011;20066;48.764;9.176;2022-10-16T00:35:57;9.33;;;2.17;;
549;SDS011;20066;48.764;9.176;2022-10-16T00:38:25;7.23;;;2.43;;
549;SDS011;20066;48.764;9.176;2022-10-16T00:40:53;10.17;;;2.43;;
549;SDS011;20066;48.764;9.176;2022-10-16T00:43:35;6.13;;;2.70;;
549;SDS011;20066;48.764;9.176;2022-10-16T00:46:08;10.63;;;2.17;;
549;SDS011;20066;48.764;9.176;2022-10-16T00:48:40;3.83;;;2.17;;
549;SDS011;20066;48.764;9.176;2022-10-16T00:51:12;4.47;;;2.00;;
549;SDS011;20066;48.764;9.176;2022-10-16T00:53:41;4.50;;;2.40;;
549;SDS011;20066;48.764;9.176;2022-10-16T00:56:09;4.50;;;2.00;;
549;SDS011;20066;48.764;9.176;2022-10-16T00:58:37;5.53;;;2.00;;
549;SDS011;20066;48.764;9.176;2022-10-16T01:01:06;5.77;;;2.40;;
549;SDS011;20066;48.764;9.176;2022-10-16T01:03:35;7.70;;;2.23;;
549;SDS011;20066;48.764;9.176;2022-10-16T01:06:09;5.47;;;2.57;;
549;SDS011;20066;48.764;9.176;2022-10-16T01:11:54;7.47;;;2.60;;
549;SDS011;20066;48.764;9.176;2022-10-16T01:14:32;6.87;;;2.80;;
549;SDS011;20066;48.764;9.176;2022-10-16T01:17:09;8.53;;;2.30;;
549;SDS011;20066;48.764;9.176;2022-10-16T01:19:48;3.93;;;1.80;;
549;SDS011;20066;48.764;9.176;2022-10-16T01:22:32;6.10;;;2.13;;
549;SDS011;20066;48.764;9.176;2022-10-16T01:25:08;6.90;;;2.07;;
549;SDS011;20066;48.764;9.176;2022-10-16T01:27:42;4.07;;;1.83;;
549;SDS011;20066;48.764;9.176;2022-10-16T01:30:16;2.73;;;1.70;;
549;SDS011;20066;48.764;9.176;2022-10-16T01:32:49;5.30;;;2.00;;
549;SDS011;20066;48.764;9.176;2022-10-16T01:35:21;5.30;;;1.90;;
549;SDS011;20066;48.764;9.176;2022-10-16T01:37:53;3.83;;;1.70;;
549;SDS011;20066;48.764;9.176;2022-10-16T01:40:28;5.63;;;1.87;;
549;SDS011;20066;48.764;9.176;2022-10-16T01:43:00;7.80;;;2.20;;
549;SDS011;20066;48.764;9.176;2022-10-16T01:45:33;6.10;;;2.20;;
549;SDS011;20066;48.764;9.176;2022-10-16T01:48:03;5.47;;;2.00;;
549;SDS011;20066;48.764;9.176;2022-10-16T01:50:37;5.27;;;1.80;;
549;SDS011;20066;48.764;9.176;2022-10-16T01:53:08;4.60;;;2.00;;
549;SDS011;20066;48.764;9.176;2022-10-16T01:55:41;3.70;;;1.87;;
549;SDS011;20066;48.764;9.176;2022-10-16T01:58:14;8.33;;;1.90;;
549;SDS011;20066;48.764;9.176;2022-10-16T02:00:43;8.57;;;2.80;;
549;SDS011;20066;48.764;9.176;2022-10-16T02:03:14;3.57;;;1.80;;
549;SDS011;20066;48.764;9.176;2022-10-16T02:05:46;7.53;;;1.83;;
549;SDS011;20066;48.764;9.176;2022-10-16T02:08:17;6.83;;;2.20;;
549;SDS011;20066;48.764;9.176;2022-10-16T02:10:45;3.67;;;1.70;;
549;SDS011;20066;48.764;9.176;2022-10-16T02:13:17;7.00;;;2.00;;
549;SDS011;20066;48.764;9.176;2022-10-16T02:15:50;9.47;;;1.90;;
549;SDS011;20066;48.764;9.176;2022-10-16T02:18:18;8.97;;;2.00;;
549;SDS011;20066;48.764;9.176;2022-10-16T02:20:48;8.27;;;2.13;;
549;SDS011;20066;48.764;9.176;2022-10-16T02:23:23;7.07;;;1.90;;
549;SDS011;20066;48.764;9.176;2022-10-16T02:25:57;7.07;;;2.27;;
549;SDS011;20066;48.764;9.176;2022-10-16T02:28:29;9.53;;;2.37;;
549;SDS011;20066;48.764;9.176;2022-10-16T02:31:03;6.20;;;2.10;;
549;SDS011;20066;48.764;9.176;2022-10-16T02:33:36;6.13;;;1.90;;
549;SDS011;20066;48.764;9.176;2022-10-16T02:36:06;6.20;;;1.73;;
549;SDS011;20066;48.764;9.176;2022-10-16T02:38:35;4.17;;;1.70;;
549;SDS011;20066;48.764;9.176;2022-10-16T02:41:04;7.43;;;1.97;;
549;SDS011;20066;48.764;9.176;2022-10-16T02:43:33;3.50;;;2.07;;
549;SDS011;20066;48.764;9.176;2022-10-16T02:46:01;4.37;;;2.10;;
549;SDS011;20066;48.764;9.176;2022-10-16T02:48:29;8.93;;;1.87;;
549;SDS011;20066;48.764;9.176;2022-10-16T02:50:56;2.83;;;1.73;;
549;SDS011;20066;48.764;9.176;2022-10-16T02:53:24;5.50;;;1.70;;
549;SDS011;20066;48.764;9.176;2022-10-16T02:55:52;9.93;;;1.93;;
549;SDS011;20066;48.764;9.176;2022-10-16T02:58:20;6.80;;;2.30;;
549;SDS011;20066;48.764;9.176;2022-10-16T03:00:49;3.60;;;1.70;;
549;SDS011;20066;48.764;9.176;2022-10-16T03:03:17;2.50;;;1.80;;
549;SDS011;20066;48.764;9.176;2022-10-16T03:05:45;9.93;;;2.10;;
549;SDS011;20066;48.764;9.176;2022-10-16T03:08:12;3.37;;;1.90;;
549;SDS011;20066;48.764;9.176;2022-10-16T03:10:41;6.90;;;1.97;;
549;SDS011;20066;48.764;9.176;2022-10-16T03:13:09;4.83;;;2.07;;
549;SDS011;20066;48.764;9.176;2022-10-16T03:15:36;3.23;;;1.73;;
549;SDS011;20066;48.764;9.176;2022-10-16T03:18:06;3.73;;;2.20;;
549;SDS011;20066;48.764;9.176;2022-10-16T03:20:33;5.43;;;2.03;;
549;SDS011;20066;48.764;9.176;2022-10-16T03:23:01;4.80;;;2.10;;
549;SDS011;20066;48.764;9.176;2022-10-16T03:25:29;8.73;;;2.40;;
549;SDS011;20066;48.764;9.176;2022-10-16T03:27:57;6.17;;;2.30;;
549;SDS011;20066;48.764;9.176;2022-10-16T03:30:25;4.30;;;1.90;;
549;SDS011;20066;48.764;9.176;2022-10-16T03:32:53;4.30;;;1.77;;
549;SDS011;20066;48.764;9.176;2022-10-16T03:35:23;4.93;;;1.97;;
549;SDS011;20066;48.764;9.176;2022-10-16T03:37:51;8.40;;;1.87;;
549;SDS011;20066;48.764;9.176;2022-10-16T03:40:19;5.03;;;2.00;;
549;SDS011;20066;48.764;9.176;2022-10-16T03:42:47;8.50;;;2.03;;
549;SDS011;20066;48.764;9.176;2022-10-16T03:45:15;2.70;;;1.70;;
549;SDS011;20066;48.764;9.176;2022-10-16T03:47:42;5.40;;;2.40;;
549;SDS011;20066;48.764;9.176;2022-10-16T03:50:10;7.10;;;1.70;;
549;SDS011;20066;48.764;9.176;2022-10-16T03:52:40;6.33;;;1.93;;
549;SDS011;20066;48.764;9.176;2022-10-16T03:55:08;4.47;;;1.90;;
549;SDS011;20066;48.764;9.176;2022-10-16T03:57:37;9.07;;;2.00;;
549;SDS011;20066;48.764;9.176;2022-10-16T04:00:05;4.13;;;1.83;;
549;SDS011;20066;48.764;9.176;2022-10-16T04:02:33;4.00;;;1.90;;
549;SDS011;20066;48.764;9.176;2022-10-16T04:05:01;9.60;;;2.33;;
549;SDS011;20066;48.764;9.176;2022-10-16T04:07:29;7.17;;;1.90;;
549;SDS011;20066;48.764;9.176;2022-10-16T04:09:59;8.33;;;1.77;;
549;SDS011;20066;48.764;9.176;2022-10-16T04:12:26;3.93;;;1.70;;
549;SDS011;20066;48.764;9.176;2022-10-16T04:14:54;9.20;;;1.80;;
549;SDS011;20066;48.764;9.176;2022-10-16T04:17:22;4.00;;;1.83;;
549;SDS011;20066;48.764;9.176;2022-10-16T04:19:50;6.80;;;1.67;;
549;SDS011;20066;48.764;9.176;2022-10-16T04:22:18;4.83;;;1.90;;
549;SDS011;20066;48.764;9.176;2022-10-16T04:24:46;11.40;;;2.50;;
549;SDS011;20066;48.764;9.176;2022-10-16T04:27:15;7.87;;;2.37;;
549;SDS011;20066;48.764;9.176;2022-10-16T04:29:43;5.07;;;1.90;;
549;SDS011;20066;48.764;9.176;2022-10-16T04:32:11;8.53;;;1.70;;
549;SDS011;20066;48.764;9.176;2022-10-16T04:34:39;6.23;;;1.80;;
549;SDS011;20066;48.764;9.176;2022-10-16T04:37:07;5.60;;;2.20;;
549;SDS011;20066;48.764;9.176;2022-10-16T04:39:35;4.87;;;1.70;;
549;SDS011;20066;48.764;9.176;2022-10-16T04:42:03;3.23;;;1.60;;
549;SDS011;20066;48.764;9.176;2022-10-16T04:44:32;4.70;;;2.00;;
549;SDS011;20066;48.764;9.176;2022-10-16T04:47:00;7.37;;;2.17;;
549;SDS011;20066;48.764;9.176;2022-10-16T04:49:28;6.00;;;1.87;;
549;SDS011;20066;48.764;9.176;2022-10-16T04:51:56;8.30;;;1.47;;
549;SDS011;20066;48.764;9.176;2022-10-16T04:54:24;9.93;;;2.10;;
549;SDS011;20066;48.764;9.176;2022-10-16T04:56:52;3.53;;;1.70;;
549;SDS011;20066;48.764;9.176;2022-10-16T04:59:20;10.77;;;2.20;;
549;SDS011;20066;48.764;9.176;2022-10-16T05:01:50;6.70;;;1.80;;
549;SDS011;20066;48.764;9.176;2022-10-16T05:04:17;3.00;;;1.70;;
549;SDS011;20066;48.764;9.176;2022-10-16T05:06:45;8.23;;;1.93;;
549;SDS011;20066;48.764;9.176;2022-10-16T05:09:13;9.53;;;2.00;;
549;SDS011;20066;48.764;9.176;2022-10-16T05:11:41;5.70;;;1.90;;
549;SDS011;20066;48.764;9.176;2022-10-16T05:14:08;5.53;;;1.70;;
549;SDS011;20066;48.764;9.176;2022-10-16T05:16:36;5.50;;;2.20;;
549;SDS011;20066;48.764;9.176;2022-10-16T05:19:06;10.97;;;2.10;;
549;SDS011;20066;48.764;9.176;2022-10-16T05:21:52;3.63;;;1.83;;
549;SDS011;20066;48.764;9.176;2022-10-16T05:24:21;5.77;;;1.83;;
549;SDS011;20066;48.764;9.176;2022-10-16T05:26:49;5.00;;;1.60;;
549;SDS011;20066;48.764;9.176;2022-10-16T05:29:17;5.33;;;2.17;;
549;SDS011;20066;48.764;9.176;2022-10-16T05:31:45;4.13;;;1.73;;
549;SDS011;20066;48.764;9.176;2022-10-16T05:34:14;7.27;;;2.00;;
549;SDS011;20066;48.764;9.176;2022-10-16T05:36:42;14.83;;;1.97;;
549;SDS011;20066;48.764;9.176;2022-10-16T05:39:11;7.83;;;2.30;;
549;SDS011;20066;48.764;9.176;2022-10-16T05:41:41;5.53;;;1.93;;
549;SDS011;20066;48.764;9.176;2022-10-16T05:44:08;13.03;;;2.43;;
549;SDS011;20066;48.764;9.176;2022-10-16T05:46:36;7.37;;;2.00;;
549;SDS011;20066;48.764;9.176;2022-10-16T05:49:04;3.30;;;1.40;;
549;SDS011;20066;48.764;9.176;2022-10-16T05:51:33;5.40;;;2.10;;
549;SDS011;20066;48.764;9.176;2022-10-16T05:54:01;5.37;;;2.00;;
549;SDS011;20066;48.764;9.176;2022-10-16T05:56:29;3.80;;;2.10;;
549;SDS011;20066;48.764;9.176;2022-10-16T05:58:57;4.90;;;1.83;;
549;SDS011;20066;48.764;9.176;2022-10-16T06:01:25;3.53;;;2.10;;
549;SDS011;20066;48.764;9.176;2022-10-16T06:03:53;5.30;;;1.80;;
549;SDS011;20066;48.764;9.176;2022-10-16T06:06:21;7.20;;;2.10;;
549;SDS011;20066;48.764;9.176;2022-10-16T06:08:53;8.63;;;2.13;;
549;SDS011;20066;48.764;9.176;2022-10-16T06:11:23;4.30;;;2.00;;
549;SDS011;20066;48.764;9.176;2022-10-16T06:13:53;9.83;;;2.00;;
549;SDS011;20066;48.764;9.176;2022-10-16T06:16:22;5.40;;;1.67;;
549;SDS011;20066;48.764;9.176;2022-10-16T06:18:52;4.27;;;2.07;;
549;SDS011;20066;48.764;9.176;2022-10-16T06:21:22;9.20;;;2.20;;
549;SDS011;20066;48.764;9.176;2022-10-16T06:23:53;6.80;;;2.00;;
549;SDS011;20066;48.764;9.176;2022-10-16T06:26:22;7.93;;;2.07;;
549;SDS011;20066;48.764;9.176;2022-10-16T06:28:51;6.07;;;1.90;;
549;SDS011;20066;48.764;9.176;2022-10-16T06:31:21;7.37;;;1.90;;
549;SDS011;20066;48.764;9.176;2022-10-16T06:33:50;4.93;;;2.07;;
549;SDS011;20066;48.764;9.176;2022-10-16T06:36:19;9.33;;;2.30;;
549;SDS011;20066;48.764;9.176;2022-10-16T06:38:48;9.97;;;2.00;;
549;SDS011;20066;48.764;9.176;2022-10-16T06:41:18;12.20;;;3.17;;
549;SDS011;20066;48.764;9.176;2022-10-16T06:43:48;4.20;;;2.00;;
549;SDS011;20066;48.764;9.176;2022-10-16T06:46:17;8.33;;;2.03;;
549;SDS011;20066;48.764;9.176;2022-10-16T06:48:47;4.17;;;1.83;;
549;SDS011;20066;48.764;9.176;2022-10-16T06:51:16;3.80;;;2.00;;
549;SDS011;20066;48.764;9.176;2022-10-16T06:53:46;7.70;;;2.20;;
549;SDS011;20066;48.764;9.176;2022-10-16T06:56:32;5.43;;;1.60;;
549;SDS011;20066;48.764;9.176;2022-10-16T06:59:02;7.57;;;1.37;;
549;SDS011;20066;48.764;9.176;2022-10-16T07:01:31;4.60;;;1.43;;
549;SDS011;20066;48.764;9.176;2022-10-16T07:03:59;2.77;;;1.77;;
549;SDS011;20066;48.764;9.176;2022-10-16T07:06:30;3.30;;;1.60;;
549;SDS011;20066;48.764;9.176;2022-10-16T07:09:00;3.50;;;1.77;;
549;SDS011;20066;48.764;9.176;2022-10-16T07:11:32;4.63;;;1.80;;
549;SDS011;20066;48.764;9.176;2022-10-16T07:14:01;4.67;;;2.20;;
549;SDS011;20066;48.764;9.176;2022-10-16T07:16:29;5.83;;;2.00;;
549;SDS011;20066;48.764;9.176;2022-10-16T07:18:59;3.07;;;1.53;;
549;SDS011;20066;48.764;9.176;2022-10-16T07:21:29;5.73;;;1.73;;
549;SDS011;20066;48.764;9.176;2022-10-16T07:24:02;3.60;;;1.60;;
549;SDS011;20066;48.764;9.176;2022-10-16T07:26:34;2.90;;;1.80;;
549;SDS011;20066;48.764;9.176;2022-10-16T07:29:06;5.30;;;1.90;;
549;SDS011;20066;48.764;9.176;2022-10-16T07:31:39;8.90;;;1.70;;
549;SDS011;20066;48.764;9.176;2022-10-16T07:34:08;2.17;;;1.37;;
549;SDS011;20066;48.764;9.176;2022-10-16T07:36:36;3.13;;;1.60;;
549;SDS011;20066;48.764;9.176;2022-10-16T07:39:04;3.00;;;1.57;;
549;SDS011;20066;48.764;9.176;2022-10-16T07:41:33;3.00;;;1.50;;
549;SDS011;20066;48.764;9.176;2022-10-16T07:44:03;5.13;;;1.60;;
549;SDS011;20066;48.764;9.176;2022-10-16T07:46:32;3.10;;;1.80;;
549;SDS011;20066;48.764;9.176;2022-10-16T07:49:02;3.30;;;1.97;;
549;SDS011;20066;48.764;9.176;2022-10-16T07:51:30;7.40;;;2.20;;
549;SDS011;20066;48.764;9.176;2022-10-16T07:53:58;3.63;;;1.43;;
549;SDS011;20066;48.764;9.176;2022-10-16T07:56:26;10.20;;;2.50;;
549;SDS011;20066;48.764;9.176;2022-10-16T07:58:55;9.43;;;1.80;;
549;SDS011;20066;48.764;9.176;2022-10-16T08:01:24;4.07;;;2.33;;
549;SDS011;20066;48.764;9.176;2022-10-16T08:03:52;5.73;;;1.90;;
549;SDS011;20066;48.764;9.176;2022-10-16T08:06:21;4.93;;;2.00;;
549;SDS011;20066;48.764;9.176;2022-10-16T08:08:53;5.37;;;2.17;;
549;SDS011;20066;48.764;9.176;2022-10-16T08:11:21;4.27;;;1.90;;
549;SDS011;20066;48.764;9.176;2022-10-16T08:13:49;5.30;;;2.30;;
549;SDS011;20066;48.764;9.176;2022-10-16T08:16:19;7.00;;;2.43;;
549;SDS011;20066;48.764;9.176;2022-10-16T08:18:47;3.40;;;1.77;;
549;SDS011;20066;48.764;9.176;2022-10-16T08:21:17;3.13;;;1.60;;
549;SDS011;20066;48.764;9.176;2022-10-16T08:23:47;3.40;;;1.93;;
549;SDS011;20066;48.764;9.176;2022-10-16T08:26:22;3.00;;;1.60;;
549;SDS011;20066;48.764;9.176;2022-10-16T08:28:50;3.23;;;1.90;;
549;SDS011;20066;48.764;9.176;2022-10-16T08:31:20;5.23;;;2.20;;
549;SDS011;20066;48.764;9.176;2022-10-16T08:33:48;4.33;;;1.60;;
549;SDS011;20066;48.764;9.176;2022-10-16T08:36:16;3.80;;;1.80;;
549;SDS011;20066;48.764;9.176;2022-10-16T08:38:44;3.23;;;1.70;;
549;SDS011;20066;48.764;9.176;2022-10-16T08:41:18;4.67;;;1.73;;
549;SDS011;20066;48.764;9.176;2022-10-16T08:44:00;4.47;;;1.97;;
549;SDS011;20066;48.764;9.176;2022-10-16T08:46:50;6.83;;;2.30;;
549;SDS011;20066;48.764;9.176;2022-10-16T08:49:29;3.90;;;1.50;;
549;SDS011;20066;48.764;9.176;2022-10-16T08:51:58;4.90;;;1.70;;
549;SDS011;20066;48.764;9.176;2022-10-16T08:54:28;3.80;;;2.00;;
549;SDS011;20066;48.764;9.176;2022-10-16T08:57:04;5.60;;;1.67;;
549;SDS011;20066;48.764;9.176;2022-10-16T08:59:38;3.57;;;1.90;;
549;SDS011;20066;48.764;9.176;2022-10-16T09:02:16;3.97;;;2.00;;
549;SDS011;20066;48.764;9.176;2022-10-16T09:04:58;6.40;;;1.70;;
549;SDS011;20066;48.764;9.176;2022-10-16T09:07:46;6.73;;;1.87;;
549;SDS011;20066;48.764;9.176;2022-10-16T09:10:23;3.73;;;1.77;;
549;SDS011;20066;48.764;9.176;2022-10-16T09:13:02;6.10;;;1.70;;
549;SDS011;20066;48.764;9.176;2022-10-16T09:15:43;6.87;;;1.97;;
549;SDS011;20066;48.764;9.176;2022-10-16T09:18:21;5.00;;;1.80;;
549;SDS011;20066;48.764;9.176;2022-10-16T09:20:59;6.60;;;1.60;;
549;SDS011;20066;48.764;9.176;2022-10-16T09:23:36;3.93;;;1.73;;
549;SDS011;20066;48.764;9.176;2022-10-16T09:26:05;3.37;;;1.60;;
549;SDS011;20066;48.764;9.176;2022-10-16T09:28:38;8.60;;;2.17;;
549;SDS011;20066;48.764;9.176;2022-10-16T09:31:09;2.83;;;1.57;;
549;SDS011;20066;48.764;9.176;2022-10-16T09:33:44;3.30;;;1.70;;
549;SDS011;20066;48.764;9.176;2022-10-16T09:36:16;4.30;;;1.50;;
549;SDS011;20066;48.764;9.176;2022-10-16T09:38:44;4.80;;;1.97;;
549;SDS011;20066;48.764;9.176;2022-10-16T09:41:14;5.10;;;1.40;;
549;SDS011;20066;48.764;9.176;2022-10-16T09:43:49;10.53;;;1.70;;
549;SDS011;20066;48.764;9.176;2022-10-16T09:46:21;4.50;;;2.17;;
549;SDS011;20066;48.764;9.176;2022-10-16T09:48:54;10.73;;;3.80;;
549;SDS011;20066;48.764;9.176;2022-10-16T09:51:26;3.13;;;2.10;;
549;SDS011;20066;48.764;9.176;2022-10-16T09:53:56;3.40;;;1.77;;
549;SDS011;20066;48.764;9.176;2022-10-16T09:56:26;4.87;;;2.30;;
549;SDS011;20066;48.764;9.176;2022-10-16T09:58:56;6.93;;;2.77;;
549;SDS011;20066;48.764;9.176;2022-10-16T10:01:27;11.33;;;2.67;;
549;SDS011;20066;48.764;9.176;2022-10-16T10:04:00;2.97;;;1.60;;
549;SDS011;20066;48.764;9.176;2022-10-16T10:06:29;4.50;;;1.70;;
549;SDS011;20066;48.764;9.176;2022-10-16T10:09:02;5.13;;;2.00;;
549;SDS011;20066;48.764;9.176;2022-10-16T10:11:38;3.63;;;1.90;;
549;SDS011;20066;48.764;9.176;2022-10-16T10:14:09;5.67;;;1.60;;
549;SDS011;20066;48.764;9.176;2022-10-16T10:17:08;7.53;;;1.80;;
549;SDS011;20066;48.764;9.176;2022-10-16T10:19:47;5.93;;;1.57;;
549;SDS011;20066;48.764;9.176;2022-10-16T10:22:26;5.20;;;1.60;;
549;SDS011;20066;48.764;9.176;2022-10-16T10:24:59;6.80;;;1.87;;
549;SDS011;20066;48.764;9.176;2022-10-16T10:27:37;6.60;;;1.60;;
549;SDS011;20066;48.764;9.176;2022-10-16T10:30:10;3.83;;;1.30;;
549;SDS011;20066;48.764;9.176;2022-10-16T10:32:46;4.27;;;1.97;;
549;SDS011;20066;48.764;9.176;2022-10-16T10:35:25;3.23;;;1.60;;
549;SDS011;20066;48.764;9.176;2022-10-16T10:38:05;4.73;;;1.60;;
549;SDS011;20066;48.764;9.176;2022-10-16T10:40:48;3.60;;;1.47;;
549;SDS011;20066;48.764;9.176;2022-10-16T10:43:27;7.00;;;1.90;;
549;SDS011;20066;48.764;9.176;2022-10-16T10:46:08;6.23;;;1.77;;
549;SDS011;20066;48.764;9.176;2022-10-16T10:48:48;4.23;;;1.73;;
549;SDS011;20066;48.764;9.176;2022-10-16T10:51:27;3.90;;;1.57;;
549;SDS011;20066;48.764;9.176;2022-10-16T10:54:05;5.50;;;1.80;;
549;SDS011;20066;48.764;9.176;2022-10-16T10:56:42;10.40;;;1.70;;
549;SDS011;20066;48.764;9.176;2022-10-16T10:59:28;4.33;;;1.30;;
549;SDS011;20066;48.764;9.176;2022-10-16T11:02:04;5.83;;;1.50;;
549;SDS011;20066;48.764;9.176;2022-10-16T11:07:47;7.60;;;1.50;;
549;SDS011;20066;48.764;9.176;2022-10-16T11:10:20;12.90;;;2.20;;
549;SDS011;20066;48.764;9.176;2022-10-16T11:12:52;4.97;;;1.87;;
549;SDS011;20066;48.764;9.176;2022-10-16T11:15:25;7.70;;;2.00;;
549;SDS011;20066;48.764;9.176;2022-10-16T11:17:59;4.57;;;1.97;;
549;SDS011;20066;48.764;9.176;2022-10-16T11:20:32;6.73;;;2.13;;
549;SDS011;20066;48.764;9.176;2022-10-16T11:23:07;7.47;;;2.90;;
549;SDS011;20066;48.764;9.176;2022-10-16T11:25:42;5.10;;;1.80;;
549;SDS011;20066;48.764;9.176;2022-10-16T11:28:11;7.10;;;1.90;;
549;SDS011;20066;48.764;9.176;2022-10-16T11:30:43;6.80;;;1.80;;
549;SDS011;20066;48.764;9.176;2022-10-16T11:33:24;5.10;;;1.77;;
549;SDS011;20066;48.764;9.176;2022-10-16T11:36:00;5.67;;;2.03;;
549;SDS011;20066;48.764;9.176;2022-10-16T11:38:36;8.37;;;1.83;;
549;SDS011;20066;48.764;9.176;2022-10-16T11:41:12;5.03;;;1.50;;
549;SDS011;20066;48.764;9.176;2022-10-16T11:43:50;4.80;;;2.00;;
549;SDS011;20066;48.764;9.176;2022-10-16T11:46:25;5.57;;;1.87;;
549;SDS011;20066;48.764;9.176;2022-10-16T11:48:56;3.63;;;1.70;;
549;SDS011;20066;48.764;9.176;2022-10-16T11:51:32;7.33;;;1.83;;
549;SDS011;20066;48.764;9.176;2022-10-16T11:54:07;7.20;;;2.20;;
549;SDS011;20066;48.764;9.176;2022-10-16T11:56:49;3.93;;;1.80;;
549;SDS011;20066;48.764;9.176;2022-10-16T11:59:22;6.57;;;2.67;;
549;SDS011;20066;48.764;9.176;2022-10-16T12:01:57;5.60;;;2.23;;
549;SDS011;20066;48.764;9.176;2022-10-16T12:04:36;5.03;;;1.67;;
549;SDS011;20066;48.764;9.176;2022-10-16T12:07:13;7.13;;;2.10;;
549;SDS011;20066;48.764;9.176;2022-10-16T12:09:46;4.83;;;1.80;;
549;SDS011;20066;48.764;9.176;2022-10-16T12:12:23;10.30;;;2.10;;
549;SDS011;20066;48.764;9.176;2022-10-16T12:15:00;3.40;;;1.80;;
549;SDS011;20066;48.764;9.176;2022-10-16T12:17:47;3.80;;;1.80;;
549;SDS011;20066;48.764;9.176;2022-10-16T12:20:19;5.27;;;1.77;;
549;SDS011;20066;48.764;9.176;2022-10-16T12:22:59;5.03;;;1.90;;
549;SDS011;20066;48.764;9.176;2022-10-16T12:25:30;2.70;;;1.50;;
549;SDS011;20066;48.764;9.176;2022-10-16T12:28:01;3.20;;;1.77;;
549;SDS011;20066;48.764;9.176;2022-10-16T12:30:32;6.40;;;1.50;;
549;SDS011;20066;48.764;9.176;2022-10-16T12:33:02;13.90;;;1.87;;
549;SDS011;20066;48.764;9.176;2022-10-16T12:35:33;5.03;;;1.57;;
549;SDS011;20066;48.764;9.176;2022-10-16T12:38:07;3.27;;;1.70;;
549;SDS011;20066;48.764;9.176;2022-10-16T12:40:43;3.03;;;1.30;;
549;SDS011;20066;48.764;9.176;2022-10-16T12:43:25;4.17;;;1.87;;
549;SDS011;20066;48.764;9.176;2022-10-16T12:46:03;3.97;;;1.50;;
549;SDS011;20066;48.764;9.176;2022-10-16T12:48:32;2.57;;;1.40;;
549;SDS011;20066;48.764;9.176;2022-10-16T12:51:22;3.30;;;1.70;;
549;SDS011;20066;48.764;9.176;2022-10-16T12:54:00;2.50;;;1.30;;
549;SDS011;20066;48.764;9.176;2022-10-16T12:56:33;4.30;;;2.20;;
549;SDS011;20066;48.764;9.176;2022-10-16T12:59:13;2.87;;;1.63;;
549;SDS011;20066;48.764;9.176;2022-10-16T13:01:54;7.00;;;2.00;;
549;SDS011;20066;48.764;9.176;2022-10-16T13:07:40;5.77;;;1.80;;
549;SDS011;20066;48.764;9.176;2022-10-16T13:10:19;5.17;;;2.10;;
549;SDS011;20066;48.764;9.176;2022-10-16T13:13:05;5.13;;;1.93;;
549;SDS011;20066;48.764;9.176;2022-10-16T13:15:49;3.40;;;1.90;;
549;SDS011;20066;48.764;9.176;2022-10-16T13:18:26;4.97;;;1.93;;
549;SDS011;20066;48.764;9.176;2022-10-16T13:21:03;4.23;;;2.30;;
549;SDS011;20066;48.764;9.176;2022-10-16T13:23:46;10.23;;;1.93;;
549;SDS011;20066;48.764;9.176;2022-10-16T13:26:21;4.50;;;1.90;;
549;SDS011;20066;48.764;9.176;2022-10-16T13:28:59;4.40;;;2.00;;
549;SDS011;20066;48.764;9.176;2022-10-16T13:31:28;4.73;;;1.80;;
549;SDS011;20066;48.764;9.176;2022-10-16T13:33:58;6.40;;;2.00;;
549;SDS011;20066;48.764;9.176;2022-10-16T13:36:28;5.80;;;2.20;;
549;SDS011;20066;48.764;9.176;2022-10-16T13:39:10;5.37;;;1.97;;
549;SDS011;20066;48.764;9.176;2022-10-16T13:41:40;8.73;;;2.10;;
549;SDS011;20066;48.764;9.176;2022-10-16T13:44:13;5.53;;;2.00;;
549;SDS011;20066;48.764;9.176;2022-10-16T13:46:43;4.10;;;2.03;;
549;SDS011;20066;48.764;9.176;2022-10-16T13:49:12;4.13;;;2.13;;
549;SDS011;20066;48.764;9.176;2022-10-16T13:51:41;5.13;;;2.00;;
549;SDS011;20066;48.764;9.176;2022-10-16T13:54:20;4.67;;;2.30;;
549;SDS011;20066;48.764;9.176;2022-10-16T13:56:48;4.07;;;2.10;;
549;SDS011;20066;48.764;9.176;2022-10-16T13:59:36;4.70;;;2.27;;
549;SDS011;20066;48.764;9.176;2022-10-16T14:02:05;5.73;;;1.97;;
549;SDS011;20066;48.764;9.176;2022-10-16T14:04:45;4.90;;;2.80;;
549;SDS011;20066;48.764;9.176;2022-10-16T14:07:14;6.17;;;2.40;;
549;SDS011;20066;48.764;9.176;2022-10-16T14:09:47;10.20;;;2.40;;
549;SDS011;20066;48.764;9.176;2022-10-16T14:12:17;5.87;;;3.40;;
549;SDS011;20066;48.764;9.176;2022-10-16T14:14:51;6.50;;;3.13;;
549;SDS011;20066;48.764;9.176;2022-10-16T14:17:22;6.27;;;3.07;;
549;SDS011;20066;48.764;9.176;2022-10-16T14:19:53;7.23;;;3.50;;
549;SDS011;20066;48.764;9.176;2022-10-16T14:22:30;8.77;;;3.00;;
549;SDS011;20066;48.764;9.176;2022-10-16T14:25:00;7.40;;;2.50;;
549;SDS011;20066;48.764;9.176;2022-10-16T14:27:30;8.47;;;2.80;;
549;SDS011;20066;48.764;9.176;2022-10-16T14:30:15;4.70;;;2.70;;
549;SDS011;20066;48.764;9.176;2022-10-16T14:32:52;17.93;;;3.00;;
549;SDS011;20066;48.764;9.176;2022-10-16T14:35:23;9.40;;;2.90;;
549;SDS011;20066;48.764;9.176;2022-10-16T14:37:56;4.07;;;2.67;;
549;SDS011;20066;48.764;9.176;2022-10-16T14:40:26;10.73;;;3.00;;
549;SDS011;20066;48.764;9.176;2022-10-16T14:42:55;7.40;;;3.13;;
549;SDS011;20066;48.764;9.176;2022-10-16T14:45:26;11.97;;;2.97;;
549;SDS011;20066;48.764;9.176;2022-10-16T14:47:56;4.87;;;2.40;;
549;SDS011;20066;48.764;9.176;2022-10-16T14:50:25;5.20;;;2.23;;
549;SDS011;20066;48.764;9.176;2022-10-16T14:52:53;6.53;;;2.87;;
549;SDS011;20066;48.764;9.176;2022-10-16T14:55:21;8.07;;;3.40;;
549;SDS011;20066;48.764;9.176;2022-10-16T14:57:49;6.60;;;2.30;;
549;SDS011;20066;48.764;9.176;2022-10-16T15:00:23;5.53;;;2.33;;
549;SDS011;20066;48.764;9.176;2022-10-16T15:02:53;6.13;;;1.83;;
549;SDS011;20066;48.764;9.176;2022-10-16T15:05:21;4.90;;;2.13;;
549;SDS011;20066;48.764;9.176;2022-10-16T15:07:52;6.80;;;2.40;;
549;SDS011;20066;48.764;9.176;2022-10-16T15:10:21;5.47;;;2.43;;
549;SDS011;20066;48.764;9.176;2022-10-16T15:12:50;7.07;;;2.27;;
549;SDS011;20066;48.764;9.176;2022-10-16T15:15:23;12.87;;;2.10;;
549;SDS011;20066;48.764;9.176;2022-10-16T15:17:59;5.13;;;2.43;;
549;SDS011;20066;48.764;9.176;2022-10-16T15:20:29;6.23;;;2.80;;
549;SDS011;20066;48.764;9.176;2022-10-16T15:23:00;25.10;;;3.97;;
549;SDS011;20066;48.764;9.176;2022-10-16T15:25:30;9.80;;;2.60;;
549;SDS011;20066;48.764;9.176;2022-10-16T15:28:01;8.40;;;2.57;;
549;SDS011;20066;48.764;9.176;2022-10-16T15:30:32;6.27;;;2.80;;
549;SDS011;20066;48.764;9.176;2022-10-16T15:33:00;8.13;;;2.43;;
549;SDS011;20066;48.764;9.176;2022-10-16T15:35:28;20.47;;;2.87;;
549;SDS011;20066;48.764;9.176;2022-10-16T15:37:57;13.33;;;3.10;;
549;SDS011;20066;48.764;9.176;2022-10-16T15:40:25;8.73;;;2.80;;
549;SDS011;20066;48.764;9.176;2022-10-16T15:42:52;34.57;;;3.40;;
549;SDS011;20066;48.764;9.176;2022-10-16T15:45:20;9.90;;;3.57;;
549;SDS011;20066;48.764;9.176;2022-10-16T15:47:50;8.40;;;4.40;;
549;SDS011;20066;48.764;9.176;2022-10-16T15:50:18;11.03;;;4.83;;
549;SDS011;20066;48.764;9.176;2022-10-16T15:52:45;16.70;;;4.10;;